Time;durP1;ratioP1;P1;durP2;ratioP2;P2;SDS_P1;SDS_P2;PMS_P1;PMS_P2;Temp;Humidity;BMP_temperature;BMP_pressure;BME280_temperature;BME280_humidity;BME280_pressure;Samples;Min_cycle;Max_cycle;Signal;HPM_P1;HPM_P2
2021/03/01 00:01:11;;;;;;;25.13;19.67;;;8.30;99.90;;;;;;5075365;28;20417;-71
2021/03/01 00:03:37;;;;;;;26.37;19.60;;;8.30;99.90;;;;;;5092681;28;20405;-71
2021/03/01 00:06:03;;;;;;;25.43;19.60;;;8.10;99.90;;;;;;5093110;28;20499;-71
2021/03/01 00:08:29;;;;;;;27.77;20.70;;;8.10;99.90;;;;;;5092139;28;20189;-72
2021/03/01 00:10:54;;;;;;;25.80;19.20;;;8.00;99.90;;;;;;5092835;28;20456;-72
2021/03/01 00:13:21;;;;;;;25.93;19.90;;;8.00;99.90;;;;;;5074532;28;20210;-72
2021/03/01 00:15:48;;;;;;;28.63;19.40;;;8.10;99.90;;;;;;5093277;28;20263;-71
2021/03/01 00:18:14;;;;;;;29.43;19.90;;;8.00;99.90;;;;;;5093020;28;20400;-71
2021/03/01 00:20:39;;;;;;;28.50;20.33;;;8.10;99.90;;;;;;5074369;28;20746;-71
2021/03/01 00:23:05;;;;;;;26.50;19.43;;;8.10;99.90;;;;;;5092891;28;20889;-71
2021/03/01 00:25:31;;;;;;;27.00;19.77;;;8.10;99.90;;;;;;5092573;28;20175;-72
2021/03/01 00:27:57;;;;;;;26.43;19.37;;;8.00;99.90;;;;;;5092834;28;20178;-71
2021/03/01 00:30:23;;;;;;;25.97;18.47;;;8.00;99.90;;;;;;5092276;28;20211;-72
2021/03/01 00:32:48;;;;;;;26.40;19.17;;;8.10;99.90;;;;;;5093027;28;20224;-71
2021/03/01 00:35:14;;;;;;;24.30;18.00;;;8.10;99.90;;;;;;5052651;28;20455;-71
2021/03/01 00:37:40;;;;;;;24.03;17.83;;;8.10;99.90;;;;;;5050772;28;20181;-72
2021/03/01 00:40:07;;;;;;;26.67;17.83;;;8.00;99.90;;;;;;5052827;28;20719;-71
2021/03/01 00:42:34;;;;;;;23.80;18.30;;;8.00;99.90;;;;;;5052150;28;20183;-72
2021/03/01 00:45:00;;;;;;;23.20;18.00;;;7.80;99.90;;;;;;5052268;28;20429;-72
2021/03/01 00:47:26;;;;;;;24.50;18.63;;;7.80;99.90;;;;;;5051900;28;20501;-72
2021/03/01 00:49:51;;;;;;;30.00;20.33;;;7.70;99.90;;;;;;5051888;28;20514;-71
2021/03/01 00:52:17;;;;;;;28.57;20.00;;;7.60;99.90;;;;;;5051652;28;20201;-72
2021/03/01 00:54:43;;;;;;;29.93;19.77;;;7.60;99.90;;;;;;5051850;28;20176;-71
2021/03/01 00:57:08;;;;;;;24.33;19.13;;;7.60;99.90;;;;;;5052493;28;20177;-71
2021/03/01 00:59:34;;;;;;;25.30;18.93;;;7.50;99.90;;;;;;5051479;28;20218;-73
2021/03/01 01:02:00;;;;;;;27.87;19.40;;;7.50;99.90;;;;;;5052348;28;20684;-74
2021/03/01 01:04:26;;;;;;;25.40;18.90;;;7.70;99.90;;;;;;5050081;28;20180;-75
2021/03/01 01:06:52;;;;;;;23.90;17.23;;;7.70;99.90;;;;;;5051852;28;20377;-74
2021/03/01 01:09:17;;;;;;;25.30;19.73;;;7.70;99.90;;;;;;5051857;28;20179;-75
2021/03/01 01:11:43;;;;;;;27.20;19.83;;;7.80;99.90;;;;;;5050358;28;20203;-75
2021/03/01 01:14:09;;;;;;;25.67;18.90;;;7.60;99.90;;;;;;5052200;28;20175;-75
2021/03/01 01:16:36;;;;;;;27.80;17.90;;;7.60;99.90;;;;;;5049695;28;20415;-75
2021/03/01 01:19:02;;;;;;;24.30;18.70;;;7.70;99.90;;;;;;5050847;28;20470;-75
2021/03/01 01:21:28;;;;;;;22.30;17.23;;;7.40;99.90;;;;;;5044639;28;20455;-75
2021/03/01 01:23:54;;;;;;;21.57;17.30;;;7.50;99.90;;;;;;5051120;28;20451;-75
2021/03/01 01:26:19;;;;;;;24.73;17.30;;;7.50;99.90;;;;;;5051242;28;20174;-75
2021/03/01 01:28:45;;;;;;;20.70;16.53;;;7.50;99.90;;;;;;5050416;28;20697;-74
2021/03/01 01:31:11;;;;;;;26.97;18.90;;;7.50;99.90;;;;;;5050370;28;20211;-75
2021/03/01 01:33:36;;;;;;;23.83;18.63;;;7.60;99.90;;;;;;5048746;28;20236;-75
2021/03/01 01:36:02;;;;;;;23.90;18.00;;;7.70;99.90;;;;;;5061520;28;20312;-75
2021/03/01 01:38:28;;;;;;;23.83;16.53;;;7.70;99.90;;;;;;5058105;28;20194;-75
2021/03/01 01:40:54;;;;;;;22.60;17.70;;;7.80;99.90;;;;;;5052242;28;20417;-75
2021/03/01 01:43:19;;;;;;;23.90;17.17;;;7.70;99.90;;;;;;5051425;28;20226;-74
2021/03/01 01:45:45;;;;;;;21.97;16.07;;;7.70;99.90;;;;;;5051418;28;20196;-75
2021/03/01 01:48:11;;;;;;;22.00;16.73;;;7.70;99.90;;;;;;5051924;28;20671;-75
2021/03/01 01:50:37;;;;;;;21.23;16.07;;;7.80;99.90;;;;;;5051002;28;21036;-75
2021/03/01 01:53:03;;;;;;;21.57;15.43;;;7.80;99.90;;;;;;5067416;28;20485;-75
2021/03/01 01:55:29;;;;;;;23.30;16.60;;;7.60;99.90;;;;;;5069794;28;20591;-74
2021/03/01 01:57:55;;;;;;;25.10;17.00;;;7.40;99.90;;;;;;5071800;28;20852;-75
2021/03/01 02:03:18;;;;;;;23.33;17.13;;;6.60;99.90;;;;;;5071479;28;20241;-74
2021/03/01 02:05:48;;;;;;;24.00;16.43;;;6.60;99.90;;;;;;5071669;28;20819;-74
2021/03/01 02:08:24;;;;;;;24.10;16.83;;;6.70;99.90;;;;;;5071496;28;20430;-75
2021/03/01 02:11:15;;;;;;;25.63;16.40;;;6.70;99.90;;;;;;5070526;28;20466;-74
2021/03/01 02:13:48;;;;;;;25.85;18.45;;;6.70;99.90;;;;;;5071034;28;20889;-74
2021/03/01 02:16:23;;;;;;;25.20;18.07;;;6.70;99.90;;;;;;5070738;28;20170;-75
2021/03/01 02:18:49;;;;;;;24.33;16.47;;;6.80;99.90;;;;;;5072353;28;20362;-75
2021/03/01 02:21:15;;;;;;;25.53;16.77;;;6.70;99.90;;;;;;5075170;28;20425;-75
2021/03/01 02:23:42;;;;;;;22.60;16.07;;;6.60;99.90;;;;;;5074398;28;20169;-75
2021/03/01 02:26:15;;;;;;;25.27;16.70;;;6.40;99.90;;;;;;5074156;28;20386;-74
2021/03/01 02:28:53;;;;;;;27.83;18.45;;;6.30;99.90;;;;;;5074151;28;20379;-75
2021/03/01 02:31:21;;;;;;;28.77;18.35;;;6.30;99.90;;;;;;5074788;28;20640;-75
2021/03/01 02:33:52;;;;;;;31.63;19.17;;;6.20;99.90;;;;;;5082836;28;20265;-75
2021/03/01 02:36:23;;;;;;;27.20;17.60;;;6.40;99.90;;;;;;5077362;28;20684;-75
2021/03/01 02:38:52;;;;;;;26.33;17.60;;;6.70;99.90;;;;;;5095107;28;20875;-75
2021/03/01 02:41:20;;;;;;;31.13;20.03;;;6.80;99.90;;;;;;5095144;28;20553;-75
2021/03/01 02:43:46;;;;;;;26.33;19.27;;;6.90;99.90;;;;;;5094519;28;20436;-75
2021/03/01 02:46:13;;;;;;;25.40;18.00;;;6.90;99.90;;;;;;5095242;28;20574;-75
2021/03/01 02:48:41;;;;;;;25.10;17.13;;;7.00;99.90;;;;;;5094299;28;20497;-75
2021/03/01 02:51:08;;;;;;;26.70;16.40;;;7.10;99.90;;;;;;5094866;28;20420;-75
2021/03/01 02:53:35;;;;;;;26.15;17.08;;;7.00;99.90;;;;;;5094036;28;20497;-75
2021/03/01 02:56:02;;;;;;;27.43;17.33;;;7.00;99.90;;;;;;5094699;28;20606;-74
2021/03/01 02:58:33;;;;;;;27.63;18.00;;;7.10;99.90;;;;;;5094060;28;20393;-75
2021/03/01 03:01:00;;;;;;;26.07;17.23;;;7.30;99.90;;;;;;5094953;28;20755;-75
2021/03/01 03:03:28;;;;;;;28.50;18.13;;;7.40;99.90;;;;;;5094279;28;20407;-74
2021/03/01 03:05:54;;;;;;;25.93;18.03;;;7.50;99.90;;;;;;5060098;28;20397;-74
2021/03/01 03:08:21;;;;;;;23.10;18.00;;;7.50;99.90;;;;;;5094625;28;20476;-75
2021/03/01 03:10:48;;;;;;;25.10;18.60;;;7.50;99.90;;;;;;5094466;28;20425;-75
2021/03/01 03:13:16;;;;;;;26.03;18.40;;;7.30;99.90;;;;;;5094814;28;20418;-75
2021/03/01 03:15:44;;;;;;;23.23;17.67;;;7.20;99.90;;;;;;5075285;28;20591;-75
2021/03/01 03:18:11;;;;;;;28.10;18.67;;;7.10;99.90;;;;;;5076548;28;20401;-75
2021/03/01 03:20:37;;;;;;;28.37;17.57;;;6.90;99.90;;;;;;5093506;28;20785;-75
2021/03/01 03:23:04;;;;;;;25.50;17.63;;;6.90;99.90;;;;;;5094201;28;20394;-75
2021/03/01 03:25:29;;;;;;;25.17;17.90;;;6.60;99.90;;;;;;5093745;28;20483;-75
2021/03/01 03:27:56;;;;;;;31.47;18.50;;;6.40;99.90;;;;;;5094583;28;20411;-75
2021/03/01 03:30:22;;;;;;;26.00;17.13;;;6.30;99.90;;;;;;5093700;28;20429;-75
2021/03/01 03:32:48;;;;;;;27.47;18.70;;;6.40;99.90;;;;;;5075966;28;20394;-75
2021/03/01 03:35:14;;;;;;;29.73;18.20;;;6.50;99.90;;;;;;5094148;28;20401;-75
2021/03/01 03:37:55;;;;;;;25.47;16.80;;;6.50;99.90;;;;;;5093452;28;20183;-75
2021/03/01 03:40:23;;;;;;;25.08;16.98;;;6.60;99.90;;;;;;5091821;28;20540;-75
2021/03/01 03:42:49;;;;;;;27.58;17.67;;;6.70;99.90;;;;;;5093913;28;20204;-75
2021/03/01 03:45:17;;;;;;;28.77;17.97;;;6.90;99.90;;;;;;5093922;28;20173;-75
2021/03/01 03:47:49;;;;;;;24.57;17.83;;;7.00;99.90;;;;;;5075195;28;20433;-73
2021/03/01 03:50:15;;;;;;;24.10;16.40;;;7.10;99.90;;;;;;5093690;28;20422;-74
2021/03/01 03:52:47;;;;;;;23.93;15.37;;;7.20;99.90;;;;;;5092947;28;20873;-74
2021/03/01 03:55:18;;;;;;;21.87;15.60;;;7.30;99.90;;;;;;5093509;28;20404;-74
2021/03/01 03:58:07;;;;;;;23.53;15.60;;;7.30;99.90;;;;;;5093015;28;20413;-74
2021/03/01 04:00:35;;;;;;;21.00;14.93;;;7.30;99.90;;;;;;5074242;28;20445;-74
2021/03/01 04:03:10;;;;;;;20.40;15.00;;;7.30;99.90;;;;;;5055785;28;20375;-74
2021/03/01 04:05:40;;;;;;;26.80;14.93;;;7.30;99.90;;;;;;5072622;28;20489;-74
2021/03/01 04:08:08;;;;;;;21.30;14.60;;;7.40;99.90;;;;;;5073269;28;20829;-74
2021/03/01 04:10:35;;;;;;;21.97;14.90;;;7.30;99.90;;;;;;5072541;28;20509;-74
2021/03/01 04:13:01;;;;;;;21.17;15.67;;;7.40;99.90;;;;;;5073042;28;20400;-74
2021/03/01 04:15:30;;;;;;;17.77;14.00;;;7.40;99.90;;;;;;5079268;28;20457;-74
2021/03/01 04:17:58;;;;;;;20.10;14.83;;;7.50;99.90;;;;;;5093383;28;20404;-74
2021/03/01 04:20:26;;;;;;;18.50;15.10;;;7.50;99.90;;;;;;5092974;28;20707;-74
2021/03/01 04:22:54;;;;;;;14.93;13.03;;;7.50;99.90;;;;;;5092952;28;20734;-74
2021/03/01 04:25:20;;;;;;;19.50;14.23;;;7.50;99.90;;;;;;5092874;28;20799;-74
2021/03/01 04:27:47;;;;;;;20.17;15.60;;;7.40;99.90;;;;;;5074477;28;20455;-74
2021/03/01 04:30:14;;;;;;;18.40;13.83;;;7.50;99.90;;;;;;5092904;28;20817;-74
2021/03/01 04:32:43;;;;;;;18.17;13.93;;;7.50;99.90;;;;;;5092155;28;20790;-74
2021/03/01 04:35:16;;;;;;;19.53;14.47;;;7.60;99.90;;;;;;5093350;28;20448;-74
2021/03/01 04:37:42;;;;;;;17.10;13.37;;;7.60;99.90;;;;;;5076960;28;20880;-74
2021/03/01 04:40:09;;;;;;;19.87;14.53;;;7.60;99.90;;;;;;5072479;28;20405;-74
2021/03/01 04:42:37;;;;;;;23.23;14.57;;;7.30;99.90;;;;;;5071247;28;20416;-76
2021/03/01 04:45:04;;;;;;;24.07;14.20;;;6.90;99.90;;;;;;5055163;28;20408;-74
2021/03/01 04:47:32;;;;;;;21.37;14.03;;;6.70;99.90;;;;;;5071477;28;20765;-74
2021/03/01 04:49:59;;;;;;;22.73;14.20;;;6.40;99.90;;;;;;5072681;28;20429;-74
2021/03/01 04:52:25;;;;;;;22.27;14.50;;;6.40;99.90;;;;;;5091435;28;20392;-74
2021/03/01 04:54:52;;;;;;;26.57;14.50;;;6.50;99.90;;;;;;5092827;28;20172;-74
2021/03/01 04:57:19;;;;;;;21.63;15.93;;;6.40;99.90;;;;;;5092191;28;20381;-74
2021/03/01 04:59:48;;;;;;;22.63;15.37;;;6.30;99.90;;;;;;5071609;28;20748;-74
2021/03/01 05:02:15;;;;;;;23.23;14.20;;;6.30;99.90;;;;;;5072209;28;20425;-74
2021/03/01 05:04:41;;;;;;;18.00;13.63;;;6.40;99.90;;;;;;5053508;28;20411;-74
2021/03/01 05:07:08;;;;;;;17.65;14.80;;;6.50;99.90;;;;;;5072305;28;20392;-74
2021/03/01 05:09:38;;;;;;;22.00;13.60;;;6.60;99.90;;;;;;5071385;28;20180;-74
2021/03/01 05:12:05;;;;;;;16.20;13.40;;;6.60;99.90;;;;;;5073008;28;20455;-75
2021/03/01 05:14:32;;;;;;;19.73;13.80;;;6.60;99.90;;;;;;5053615;28;20380;-74
2021/03/01 05:17:01;;;;;;;22.20;14.00;;;6.70;99.90;;;;;;5074323;28;20787;-74
2021/03/01 05:19:30;;;;;;;18.73;13.27;;;6.40;99.90;;;;;;5091473;28;20385;-73
2021/03/01 05:21:55;;;;;;;15.63;12.40;;;6.40;99.90;;;;;;5090797;28;20577;-74
2021/03/01 05:24:21;;;;;;;18.53;13.23;;;6.50;99.90;;;;;;5084554;28;20177;-74
2021/03/01 05:26:47;;;;;;;17.60;12.77;;;6.50;99.90;;;;;;5071256;28;20386;-74
2021/03/01 05:29:13;;;;;;;18.10;13.07;;;6.60;99.90;;;;;;5080810;28;20176;-74
2021/03/01 05:31:38;;;;;;;15.23;12.90;;;6.60;99.90;;;;;;5091302;28;20215;-74
2021/03/01 05:34:04;;;;;;;16.97;12.97;;;6.60;99.90;;;;;;5092037;28;20212;-74
2021/03/01 05:36:30;;;;;;;18.87;12.87;;;6.70;99.90;;;;;;5091467;28;20467;-74
2021/03/01 05:38:55;;;;;;;17.20;12.43;;;6.60;99.90;;;;;;5092209;28;20168;-74
2021/03/01 05:41:25;;;;;;;16.50;12.23;;;6.60;99.90;;;;;;5092187;28;20255;-74
2021/03/01 05:43:52;;;;;;;13.77;11.57;;;6.70;99.90;;;;;;5092143;28;20317;-74
2021/03/01 05:46:18;;;;;;;20.33;13.70;;;6.80;99.90;;;;;;5091561;28;20172;-74
2021/03/01 05:48:46;;;;;;;16.20;12.90;;;6.90;99.90;;;;;;5091200;28;20177;-74
2021/03/01 05:51:14;;;;;;;18.70;13.70;;;6.90;99.90;;;;;;5091853;28;20453;-74
2021/03/01 05:53:42;;;;;;;17.95;13.45;;;6.90;99.90;;;;;;5093147;28;20417;-74
2021/03/01 05:56:08;;;;;;;19.55;13.20;;;6.80;99.90;;;;;;5096220;28;20632;-74
2021/03/01 05:58:34;;;;;;;19.57;14.23;;;6.80;99.90;;;;;;5095231;28;20259;-74
2021/03/01 06:01:04;;;;;;;17.60;13.67;;;6.90;99.90;;;;;;5095501;28;20418;-74
2021/03/01 06:03:35;;;;;;;14.90;11.93;;;6.80;99.90;;;;;;5095113;28;20398;-74
2021/03/01 06:06:02;;;;;;;15.20;13.10;;;6.70;99.90;;;;;;5096521;28;20191;-74
2021/03/01 06:08:28;;;;;;;17.65;14.10;;;6.80;99.90;;;;;;5095327;28;20699;-74
2021/03/01 06:11:01;;;;;;;16.47;12.77;;;6.70;99.90;;;;;;5094955;28;20211;-74
2021/03/01 06:13:28;;;;;;;14.23;12.10;;;6.60;99.90;;;;;;5094993;28;20419;-74
2021/03/01 06:15:54;;;;;;;18.60;13.80;;;6.70;99.90;;;;;;5095608;28;20404;-75
2021/03/01 06:18:21;;;;;;;15.68;12.93;;;6.80;99.90;;;;;;5095046;28;20889;-75
2021/03/01 06:20:46;;;;;;;18.43;12.93;;;6.80;99.90;;;;;;5094575;28;20184;-75
2021/03/01 06:23:27;;;;;;;16.40;13.90;;;6.80;99.90;;;;;;5095102;28;20418;-74
2021/03/01 06:25:53;;;;;;;15.57;12.87;;;6.80;99.90;;;;;;5094704;28;20180;-75
2021/03/01 06:28:27;;;;;;;16.20;13.13;;;6.80;99.90;;;;;;5093537;28;20397;-74
2021/03/01 06:30:53;;;;;;;20.48;14.05;;;6.80;99.90;;;;;;5094518;28;20219;-74
2021/03/01 06:33:19;;;;;;;15.80;13.43;;;6.80;99.90;;;;;;5094842;28;20212;-74
2021/03/01 06:35:46;;;;;;;19.17;14.73;;;6.90;99.90;;;;;;5076165;28;20176;-74
2021/03/01 06:38:30;;;;;;;24.17;16.10;;;6.90;99.90;;;;;;5076904;28;20426;-74
2021/03/01 06:41:17;;;;;;;17.23;13.30;;;6.80;99.90;;;;;;5094722;28;20414;-74
2021/03/01 06:43:59;;;;;;;14.43;12.67;;;6.80;99.90;;;;;;5076147;28;20176;-74
2021/03/01 06:46:33;;;;;;;15.67;13.80;;;6.80;99.90;;;;;;5077115;28;20390;-74
2021/03/01 06:49:13;;;;;;;14.60;12.20;;;6.80;99.90;;;;;;5094620;28;20406;-73
2021/03/01 06:51:39;;;;;;;15.05;12.05;;;6.90;99.90;;;;;;5089518;28;20200;-74
2021/03/01 06:54:05;;;;;;;15.93;12.85;;;6.90;99.90;;;;;;5094687;28;20268;-73
2021/03/01 06:56:41;;;;;;;15.50;12.53;;;7.00;99.90;;;;;;5094199;28;20299;-74
2021/03/01 06:59:33;;;;;;;16.40;13.67;;;7.00;99.90;;;;;;5074658;28;20249;-75
2021/03/01 07:01:59;;;;;;;19.38;13.85;;;6.90;99.90;;;;;;5081253;28;20430;-75
2021/03/01 07:04:31;;;;;;;17.53;12.47;;;6.70;99.90;;;;;;5075881;28;20613;-75
2021/03/01 07:06:58;;;;;;;20.30;12.73;;;6.20;99.90;;;;;;5093430;28;20187;-74
2021/03/01 07:09:27;;;;;;;18.23;12.23;;;6.10;99.90;;;;;;5094235;28;20161;-74
2021/03/01 07:11:53;;;;;;;16.33;10.57;;;5.90;99.90;;;;;;5093540;28;20247;-75
2021/03/01 07:14:22;;;;;;;12.52;10.20;;;5.80;99.90;;;;;;5094145;28;20229;-75
2021/03/01 07:16:50;;;;;;;15.65;11.77;;;5.80;99.90;;;;;;5091280;28;20620;-74
2021/03/01 07:19:27;;;;;;;18.00;11.70;;;5.70;99.90;;;;;;5094678;28;20248;-74
2021/03/01 07:22:04;;;;;;;15.80;11.77;;;5.50;99.90;;;;;;5093648;28;20596;-75
2021/03/01 07:24:31;;;;;;;20.00;12.38;;;5.70;99.90;;;;;;5094011;28;20612;-75
2021/03/01 07:27:02;;;;;;;17.05;11.52;;;5.80;99.90;;;;;;5094137;28;20181;-74
2021/03/01 07:29:40;;;;;;;13.48;11.23;;;5.90;99.90;;;;;;5093710;28;20185;-75
2021/03/01 07:32:08;;;;;;;16.63;14.32;;;5.70;99.90;;;;;;5075953;28;20196;-75
2021/03/01 07:34:35;;;;;;;16.15;13.18;;;6.40;99.90;;;;;;5092791;28;20211;-76
2021/03/01 07:37:03;;;;;;;13.38;12.00;;;7.10;99.90;;;;;;5094043;28;20169;-76
2021/03/01 07:39:31;;;;;;;16.75;11.40;;;7.10;99.90;;;;;;5093974;28;20183;-75
2021/03/01 07:41:58;;;;;;;11.10;10.02;;;6.30;99.90;;;;;;5075654;28;20176;-75
2021/03/01 07:44:28;;;;;;;21.08;12.85;;;6.20;99.90;;;;;;5093026;28;20192;-75
2021/03/01 07:46:57;;;;;;;20.05;13.07;;;6.40;99.90;;;;;;5079730;28;20186;-75
2021/03/01 07:49:47;;;;;;;15.65;13.20;;;5.90;99.90;;;;;;5073601;28;20177;-75
2021/03/01 07:52:19;;;;;;;17.88;13.05;;;6.50;99.90;;;;;;5082582;28;20238;-75
2021/03/01 07:55:18;;;;;;;20.50;11.05;;;6.50;99.90;;;;;;5092961;28;20175;-75
2021/03/01 07:58:03;;;;;;;29.97;18.23;;;6.30;99.90;;;;;;5091952;28;20194;-75
2021/03/01 08:00:30;;;;;;;15.03;11.40;;;7.80;99.90;;;;;;5093790;28;20374;-75
2021/03/01 08:02:58;;;;;;;48.13;30.57;;;7.90;99.90;;;;;;5093188;28;20404;-75
2021/03/01 08:05:32;;;;;;;15.80;12.30;;;8.60;99.90;;;;;;5093699;28;20410;-75
2021/03/01 08:07:58;;;;;;;31.13;21.93;;;9.70;99.90;;;;;;5093184;28;20404;-75
2021/03/01 08:10:27;;;;;;;14.27;11.17;;;10.10;99.90;;;;;;5075456;28;20446;-80
2021/03/01 08:12:56;;;;;;;11.23;10.13;;;10.80;99.90;;;;;;5092821;28;20921;-74
2021/03/01 08:15:31;;;;;;;13.93;11.27;;;10.20;94.10;;;;;;5093397;28;20732;-74
2021/03/01 08:17:57;;;;;;;17.60;12.93;;;9.30;93.90;;;;;;5091946;28;20401;-74
2021/03/01 08:20:31;;;;;;;16.93;10.87;;;7.80;96.10;;;;;;5093401;28;20797;-74
2021/03/01 08:23:10;;;;;;;12.67;11.37;;;7.00;99.60;;;;;;5092698;28;20389;-73
2021/03/01 08:25:42;;;;;;;12.97;10.97;;;6.90;99.90;;;;;;5092095;28;20411;-73
2021/03/01 08:28:32;;;;;;;21.87;11.43;;;7.00;99.90;;;;;;5093264;28;20725;-74
2021/03/01 08:31:10;;;;;;;15.77;12.93;;;7.00;99.90;;;;;;5077522;28;20461;-74
2021/03/01 08:33:37;;;;;;;14.95;12.63;;;7.00;99.90;;;;;;5073981;28;20531;-74
2021/03/01 08:36:03;;;;;;;18.37;11.87;;;7.00;99.90;;;;;;5087355;28;20514;-73
2021/03/01 08:38:43;;;;;;;15.13;11.80;;;6.80;99.90;;;;;;5082696;28;20405;-73
2021/03/01 08:41:19;;;;;;;17.95;12.13;;;6.70;99.90;;;;;;5082265;28;20226;-73
2021/03/01 08:43:46;;;;;;;22.63;12.07;;;6.20;99.90;;;;;;5092017;28;20156;-73
2021/03/01 08:46:14;;;;;;;13.95;11.73;;;5.90;99.90;;;;;;5092766;28;20188;-73
2021/03/01 08:48:42;;;;;;;71.55;41.63;;;5.70;99.90;;;;;;5091732;28;20179;-74
2021/03/01 08:51:11;;;;;;;21.38;12.30;;;6.00;99.90;;;;;;5083742;28;20660;-73
2021/03/01 08:53:37;;;;;;;18.33;13.43;;;5.70;99.90;;;;;;5091088;28;20169;-74
2021/03/01 08:56:04;;;;;;;15.35;11.27;;;5.50;99.90;;;;;;5092856;28;20256;-74
2021/03/01 08:58:33;;;;;;;14.93;12.30;;;5.20;99.90;;;;;;5092293;28;20176;-75
2021/03/01 09:01:07;;;;;;;22.17;11.93;;;5.50;99.90;;;;;;5092426;28;20212;-73
2021/03/01 09:03:38;;;;;;;16.38;11.90;;;5.60;99.90;;;;;;5074168;28;20634;-76
2021/03/01 09:06:06;;;;;;;20.63;12.45;;;5.70;99.90;;;;;;5092030;28;20221;-74
2021/03/01 09:08:37;;;;;;;18.85;13.25;;;5.80;99.90;;;;;;5091566;28;20168;-74
2021/03/01 09:11:07;;;;;;;18.40;13.40;;;5.80;99.90;;;;;;5092306;28;20257;-74
2021/03/01 09:13:36;;;;;;;17.95;13.40;;;5.90;99.90;;;;;;5090925;28;20200;-74
2021/03/01 09:16:12;;;;;;;120.30;68.43;;;6.00;99.90;;;;;;5072181;28;20222;-73
2021/03/01 09:18:40;;;;;;;42.63;24.92;;;5.90;99.90;;;;;;5071040;28;20222;-73
2021/03/01 09:21:08;;;;;;;20.63;12.52;;;6.20;99.90;;;;;;5072043;28;20173;-74
2021/03/01 09:23:45;;;;;;;20.60;12.38;;;6.00;99.90;;;;;;5090792;28;20259;-74
2021/03/01 09:26:32;;;;;;;18.52;12.32;;;5.70;99.90;;;;;;5076340;28;20172;-73
2021/03/01 09:29:18;;;;;;;16.67;11.45;;;5.60;99.90;;;;;;5084797;28;20161;-73
2021/03/01 09:31:54;;;;;;;15.65;12.73;;;5.80;99.90;;;;;;5068615;28;20268;-73
2021/03/01 09:34:22;;;;;;;15.90;13.50;;;5.90;99.90;;;;;;5082970;28;20590;-74
2021/03/01 09:36:48;;;;;;;14.93;12.20;;;6.00;99.90;;;;;;5087771;28;20196;-73
2021/03/01 09:39:18;;;;;;;14.30;12.23;;;6.10;99.90;;;;;;5071864;28;20209;-73
2021/03/01 09:41:44;;;;;;;13.73;11.80;;;6.20;99.90;;;;;;5078570;28;20887;-73
2021/03/01 09:44:11;;;;;;;15.73;12.70;;;6.40;99.90;;;;;;5092210;28;20172;-73
2021/03/01 09:46:37;;;;;;;14.10;12.20;;;6.60;99.90;;;;;;5073380;28;20165;-74
2021/03/01 09:49:06;;;;;;;15.20;11.60;;;6.40;99.90;;;;;;5092054;28;20520;-73
2021/03/01 09:51:34;;;;;;;18.17;11.80;;;6.40;99.90;;;;;;5090107;28;20204;-73
2021/03/01 09:54:04;;;;;;;18.02;12.75;;;6.60;99.90;;;;;;5091399;28;20179;-73
2021/03/01 09:56:53;;;;;;;17.65;12.90;;;6.50;99.90;;;;;;5091891;28;20605;-72
2021/03/01 09:59:39;;;;;;;19.25;14.85;;;6.40;99.90;;;;;;5068123;28;20233;-73
2021/03/01 10:02:06;;;;;;;14.40;12.50;;;6.40;99.90;;;;;;5087162;28;20173;-73
2021/03/01 10:04:31;;;;;;;16.25;12.48;;;6.60;99.90;;;;;;5086272;28;20440;-74
2021/03/01 10:07:24;;;;;;;16.13;12.70;;;6.70;99.90;;;;;;5071002;28;20170;-73
2021/03/01 10:09:50;;;;;;;15.40;12.83;;;6.90;99.90;;;;;;5056822;28;20173;-74
2021/03/01 10:12:18;;;;;;;15.30;13.70;;;6.90;99.90;;;;;;5081422;28;20453;-75
2021/03/01 10:14:45;;;;;;;33.97;23.00;;;6.80;99.90;;;;;;5077977;28;20208;-74
2021/03/01 10:17:16;;;;;;;16.43;13.57;;;6.50;99.90;;;;;;5076653;28;20633;-74
2021/03/01 10:19:42;;;;;;;14.57;12.57;;;6.50;99.90;;;;;;5070423;28;20904;-74
2021/03/01 10:22:08;;;;;;;16.20;12.50;;;6.60;99.90;;;;;;5075821;28;20213;-74
2021/03/01 10:24:48;;;;;;;14.67;11.87;;;6.50;99.90;;;;;;5082855;28;20199;-74
2021/03/01 10:27:18;;;;;;;16.10;12.87;;;6.50;99.90;;;;;;5091687;28;20660;-74
2021/03/01 10:29:48;;;;;;;13.68;12.25;;;6.70;99.90;;;;;;5090440;28;20388;-74
2021/03/01 10:32:25;;;;;;;17.33;12.38;;;6.60;99.90;;;;;;5091401;28;20196;-74
2021/03/01 10:38:17;;;;;;;14.20;12.30;;;6.40;99.90;;;;;;5069754;28;20217;-74
2021/03/01 10:40:43;;;;;;;16.10;12.90;;;6.60;99.90;;;;;;5092438;28;20447;-74
2021/03/01 10:43:11;;;;;;;16.67;13.30;;;6.70;99.90;;;;;;5094933;28;20163;-74
2021/03/01 10:45:41;;;;;;;16.10;12.67;;;6.80;99.90;;;;;;5092082;28;20456;-75
2021/03/01 10:48:07;;;;;;;14.90;12.43;;;7.00;99.90;;;;;;5090832;28;20393;-74
2021/03/01 10:50:33;;;;;;;16.00;13.23;;;7.20;99.90;;;;;;5093999;28;20436;-74
2021/03/01 10:52:59;;;;;;;17.47;13.10;;;7.20;99.90;;;;;;5093884;28;20416;-75
2021/03/01 10:55:24;;;;;;;15.80;12.50;;;7.40;99.90;;;;;;5094941;28;20520;-74
2021/03/01 10:57:50;;;;;;;13.87;11.67;;;7.50;99.90;;;;;;5072704;28;20208;-75
2021/03/01 11:00:16;;;;;;;14.60;12.33;;;7.50;99.90;;;;;;5094241;28;20512;-75
2021/03/01 11:02:42;;;;;;;16.80;12.90;;;7.50;99.90;;;;;;5093821;28;20563;-74
2021/03/01 11:05:08;;;;;;;17.93;12.87;;;7.60;99.90;;;;;;5075314;28;20416;-75
2021/03/01 11:07:34;;;;;;;19.67;13.80;;;7.60;99.90;;;;;;5094713;28;20177;-75
2021/03/01 11:10:00;;;;;;;20.40;15.43;;;7.60;99.90;;;;;;5092713;28;20424;-74
2021/03/01 11:12:26;;;;;;;18.90;15.87;;;7.70;99.90;;;;;;5094290;28;20519;-74
2021/03/01 11:14:52;;;;;;;18.70;13.33;;;7.70;99.90;;;;;;5093751;28;20376;-75
2021/03/01 11:17:18;;;;;;;21.60;15.50;;;7.80;99.90;;;;;;5092235;28;20504;-74
2021/03/01 11:19:43;;;;;;;16.73;13.83;;;7.90;99.90;;;;;;5093383;28;20261;-75
2021/03/01 11:22:09;;;;;;;15.23;11.90;;;7.80;99.90;;;;;;5086019;28;20674;-74
2021/03/01 11:24:35;;;;;;;16.10;12.97;;;7.80;99.90;;;;;;5074209;28;20196;-75
2021/03/01 11:27:01;;;;;;;20.00;15.70;;;7.50;99.90;;;;;;5091329;28;20166;-75
2021/03/01 11:29:27;;;;;;;18.47;13.70;;;7.60;99.90;;;;;;5093732;28;20533;-74
2021/03/01 11:31:52;;;;;;;22.53;14.77;;;7.60;99.90;;;;;;5092106;28;20452;-75
2021/03/01 11:34:19;;;;;;;16.20;13.50;;;7.60;99.90;;;;;;5075467;28;20222;-75
2021/03/01 11:36:45;;;;;;;18.17;14.60;;;7.70;99.90;;;;;;5093461;28;20182;-74
2021/03/01 11:39:13;;;;;;;713.13;441.00;;;7.90;99.90;;;;;;5093505;28;20429;-74
2021/03/01 11:41:39;;;;;;;54.17;35.37;;;8.00;99.90;;;;;;5094111;28;20410;-74
2021/03/01 11:44:06;;;;;;;21.60;16.40;;;8.10;99.90;;;;;;5092479;28;20422;-74
2021/03/01 11:46:32;;;;;;;26.00;17.90;;;8.20;99.90;;;;;;5094119;28;20752;-74
2021/03/01 11:48:57;;;;;;;21.07;15.40;;;8.20;99.90;;;;;;5075062;28;20403;-75
2021/03/01 11:51:23;;;;;;;19.33;14.97;;;8.20;99.90;;;;;;5093288;28;20277;-75
2021/03/01 11:53:49;;;;;;;20.33;15.67;;;8.10;99.90;;;;;;5093052;28;20175;-74
2021/03/01 11:56:15;;;;;;;20.10;15.40;;;8.10;99.90;;;;;;5093857;28;20184;-75
2021/03/01 11:58:41;;;;;;;20.13;16.70;;;8.10;99.90;;;;;;5093455;28;20183;-75
2021/03/01 12:01:08;;;;;;;257.37;155.23;;;8.30;99.90;;;;;;5093571;28;20247;-75
2021/03/01 12:03:34;;;;;;;130.83;73.43;;;8.50;99.90;;;;;;5093397;28;20509;-75
2021/03/01 12:06:00;;;;;;;21.37;17.67;;;8.60;99.90;;;;;;5074470;28;21049;-74
2021/03/01 12:08:26;;;;;;;24.33;18.90;;;8.50;99.90;;;;;;5093388;28;20410;-75
2021/03/01 12:10:53;;;;;;;22.93;17.90;;;8.60;99.90;;;;;;5088171;28;20473;-74
2021/03/01 12:13:18;;;;;;;21.90;17.43;;;8.60;99.90;;;;;;5071770;28;20175;-75
2021/03/01 12:15:45;;;;;;;24.00;17.60;;;8.50;99.90;;;;;;5073583;28;20428;-75
2021/03/01 12:18:11;;;;;;;25.93;16.93;;;8.50;99.90;;;;;;5084990;28;20172;-75
2021/03/01 12:20:37;;;;;;;19.50;16.30;;;8.50;99.90;;;;;;5092018;28;20892;-74
2021/03/01 12:23:02;;;;;;;21.73;16.47;;;8.60;99.90;;;;;;5070602;28;20523;-75
2021/03/01 12:25:28;;;;;;;23.53;17.30;;;8.50;99.90;;;;;;5086753;28;20180;-74
2021/03/01 12:27:54;;;;;;;22.17;17.00;;;8.00;99.90;;;;;;5071936;28;20411;-75
2021/03/01 12:30:20;;;;;;;26.67;17.33;;;8.00;99.90;;;;;;5079022;28;20918;-73
2021/03/01 12:32:47;;;;;;;22.93;16.83;;;8.10;99.90;;;;;;5087786;28;20183;-73
2021/03/01 12:35:13;;;;;;;24.63;16.33;;;8.20;99.90;;;;;;5057719;28;20452;-75
2021/03/01 12:37:39;;;;;;;25.30;16.97;;;8.40;99.90;;;;;;5081811;28;20424;-73
2021/03/01 12:40:06;;;;;;;21.53;15.77;;;8.50;99.90;;;;;;5086683;28;20473;-73
2021/03/01 12:42:32;;;;;;;20.60;16.50;;;8.50;99.90;;;;;;5065305;28;20545;-73
2021/03/01 12:44:58;;;;;;;23.27;15.13;;;8.40;99.90;;;;;;5092217;28;20384;-74
2021/03/01 12:47:24;;;;;;;17.13;14.67;;;8.50;99.90;;;;;;5092768;28;20171;-74
2021/03/01 12:49:50;;;;;;;20.23;14.90;;;8.30;99.90;;;;;;5090674;28;20450;-73